Time;durP1;ratioP1;P1;durP2;ratioP2;P2;SDS_P1;SDS_P2;PMS_P1;PMS_P2;Temp;Humidity;BMP_temperature;BMP_pressure;BME280_temperature;BME280_humidity;BME280_pressure;Samples;Min_cycle;Max_cycle;Signal;HPM_P1;HPM_P2
2022/09/05 00:00:06;;;;;;;5.53;2.67;;;;;;;10.02;61.82;100007.16;4863714;29;20467;-96
2022/09/05 00:02:58;;;;;;;5.68;2.75;;;;;;;9.99;61.68;100006.94;4877267;29;20049;-91
2022/09/05 00:05:47;;;;;;;6.78;2.45;;;;;;;9.99;62.19;100021.41;4863324;29;20044;-95
2022/09/05 00:08:22;;;;;;;5.57;2.70;;;;;;;10.25;62.13;100056.59;4872871;29;20041;-92
2022/09/05 00:11:12;;;;;;;9.30;2.55;;;;;;;10.22;62.23;100058.00;4847501;29;20076;-91
2022/09/05 00:13:43;;;;;;;10.15;2.58;;;;;;;9.98;62.48;100021.69;4880397;29;20506;-92
2022/09/05 00:16:34;;;;;;;4.78;2.42;;;;;;;10.14;62.53;100055.94;4863721;29;20495;-91
2022/09/05 00:19:10;;;;;;;5.85;2.70;;;;;;;10.11;62.89;100057.31;4848442;29;20128;-92
2022/09/05 00:21:44;;;;;;;8.60;3.15;;;;;;;10.07;62.81;100058.19;4879404;29;20049;-92
2022/09/05 00:24:16;;;;;;;5.72;2.55;;;;;;;10.06;63.07;100051.91;4846934;29;20074;-90
2022/09/05 00:27:21;;;;;;;5.07;2.70;;;;;;;9.94;63.25;100058.91;4864003;29;20053;-93
2022/09/05 00:30:03;;;;;;;8.27;2.40;;;;;;;9.53;63.14;99978.22;4867713;29;20069;-92
2022/09/05 00:33:07;;;;;;;11.98;3.08;;;;;;;9.62;63.05;99984.69;4842930;29;20076;-89
2022/09/05 00:35:57;;;;;;;6.53;2.53;;;;;;;9.73;63.26;100025.53;4867433;29;20511;-90
2022/09/05 00:38:27;;;;;;;16.10;3.13;;;;;;;9.59;63.62;100004.38;4866088;29;20577;-90
2022/09/05 00:43:32;;;;;;;5.72;2.70;;;;;;;9.78;63.83;100044.59;4882615;29;20100;-90
2022/09/05 00:46:01;;;;;;;4.25;2.67;;;;;;;9.78;64.13;100048.13;4865612;29;20041;-91
2022/09/05 00:48:48;;;;;;;9.43;2.95;;;;;;;9.35;63.98;99989.91;4865415;29;20044;-90
2022/09/05 00:54:37;;;;;;;8.50;2.75;;;;;;;9.45;64.28;100000.72;4882417;29;20044;-90
2022/09/05 00:57:37;;;;;;;7.03;2.78;;;;;;;9.75;64.54;100048.72;4831289;29;20073;-91
2022/09/05 01:00:22;;;;;;;7.53;2.70;;;;;;;9.69;64.41;100049.06;4865617;29;20577;-91
2022/09/05 01:03:24;;;;;;;19.48;3.72;;;;;;;9.45;64.40;100008.91;4880512;29;20063;-90
2022/09/05 01:06:16;;;;;;;6.40;2.88;;;;;;;9.67;64.66;100040.31;4847732;29;20584;-91
2022/09/05 01:09:03;;;;;;;7.88;2.67;;;;;;;9.48;65.09;100000.13;4862832;29;20089;-89
2022/09/05 01:11:56;;;;;;;8.25;2.78;;;;;;;9.75;64.42;100032.31;4850308;29;20041;-91
2022/09/05 01:14:35;;;;;;;11.50;3.05;;;;;;;9.77;64.32;100034.78;4849914;29;20047;-91
2022/09/05 01:17:31;;;;;;;5.68;2.70;;;;;;;9.57;64.58;100000.31;4880461;29;20056;-91
2022/09/05 01:20:11;;;;;;;9.83;2.67;;;;;;;9.67;64.73;100032.97;4849600;29;20045;-91
2022/09/05 01:22:43;;;;;;;4.18;2.60;;;;;;;9.74;64.83;100036.16;4849603;29;20093;-91
2022/09/05 01:25:23;;;;;;;9.57;2.90;;;;;;;9.50;64.54;99988.91;4841525;29;20056;-91
2022/09/05 01:27:59;;;;;;;8.57;2.95;;;;;;;9.23;64.35;99941.16;4850163;29;20176;-91
2022/09/05 01:30:44;;;;;;;7.25;2.70;;;;;;;9.85;64.30;100029.47;4872260;29;20388;-91
2022/09/05 01:33:45;;;;;;;5.78;2.80;;;;;;;9.74;64.68;100030.72;4864377;29;20092;-91
2022/09/05 01:36:42;;;;;;;8.27;3.00;;;;;;;9.68;65.11;100028.31;4865003;29;20052;-90
2022/09/05 01:39:11;;;;;;;;;;;;;;;9.71;65.17;100025.03;4850381;29;20562;-92
2022/09/05 01:42:03;;;;;;;6.18;2.92;;;;;;;9.29;65.16;99966.50;4862112;29;19919;-91
2022/09/05 01:44:48;;;;;;;6.15;2.95;;;;;;;9.23;65.34;99962.19;4865202;29;20040;-91
2022/09/05 01:47:42;;;;;;;4.68;2.58;;;;;;;9.69;65.33;100021.75;4880132;29;20120;-91
2022/09/05 01:50:15;;;;;;;6.13;2.80;;;;;;;9.60;65.52;100016.94;4880040;29;20049;-92
2022/09/05 01:52:53;;;;;;;4.20;2.70;;;;;;;9.58;65.62;100019.13;4864632;29;20044;-91
2022/09/05 01:55:47;;;;;;;10.85;3.30;;;;;;;9.68;65.37;100009.22;4842249;29;20709;-90
2022/09/05 01:58:37;;;;;;;4.38;2.60;;;;;;;9.73;65.46;100020.06;4875501;29;20132;-91
2022/09/05 02:01:45;;;;;;;6.15;2.72;;;;;;;9.80;64.80;100020.53;4873928;29;20037;-90
2022/09/05 02:04:29;;;;;;;6.30;3.05;;;;;;;9.51;64.61;99976.91;4845268;29;20047;-90
2022/09/05 02:07:14;;;;;;;5.75;3.15;;;;;;;9.73;64.87;100015.41;4849203;29;20519;-91
2022/09/05 02:09:55;;;;;;;6.22;2.78;;;;;;;9.33;65.03;99967.53;4861353;29;20041;-91
2022/09/05 02:12:34;;;;;;;5.82;3.10;;;;;;;9.00;65.42;99937.31;4861108;29;20044;-92
2022/09/05 02:15:06;;;;;;;6.43;2.72;;;;;;;9.35;65.60;99979.78;4872406;29;20052;-92
2022/09/05 02:17:50;;;;;;;6.20;2.90;;;;;;;9.23;65.43;99957.53;4863456;29;20041;-90
2022/09/05 02:20:37;;;;;;;6.03;2.50;;;;;;;9.74;65.09;100025.25;4846463;29;20048;-92
2022/09/05 02:23:23;;;;;;;7.13;2.83;;;;;;;9.37;64.70;99960.41;4864026;29;20414;-91
2022/09/05 02:26:00;;;;;;;9.40;2.65;;;;;;;9.69;64.80;100008.91;4848939;29;20103;-91
2022/09/05 02:28:54;;;;;;;4.50;2.78;;;;;;;9.76;64.96;100027.69;4848658;29;20072;-91
2022/09/05 02:31:28;;;;;;;7.30;2.90;;;;;;;9.72;65.03;100030.19;4879394;29;20542;-91
2022/09/05 02:34:11;;;;;;;6.70;3.30;;;;;;;9.63;65.25;100030.00;4863600;29;20044;-90
2022/09/05 02:37:16;;;;;;;6.22;2.60;;;;;;;9.57;65.79;100031.16;4848567;29;20036;-91
2022/09/05 02:40:18;;;;;;;4.70;2.70;;;;;;;9.59;66.11;100039.06;4841201;29;20523;-91
2022/09/05 02:42:54;;;;;;;6.55;3.00;;;;;;;9.59;66.12;100045.31;4879185;29;20097;-89
2022/09/05 02:45:43;;;;;;;4.13;2.63;;;;;;;9.45;65.99;100010.81;4854363;29;20046;-90
2022/09/05 02:48:31;;;;;;;6.45;2.70;;;;;;;9.67;66.01;100040.31;4878867;29;20041;-90
2022/09/05 02:51:30;;;;;;;9.07;2.90;;;;;;;9.70;66.16;100037.03;4875332;29;20045;-91
2022/09/05 02:54:18;;;;;;;20.40;4.80;;;;;;;9.60;66.18;100024.28;4843367;29;20047;-90
2022/09/05 02:56:55;;;;;;;8.20;3.58;;;;;;;9.82;66.05;100034.72;4865202;29;20045;-90
2022/09/05 02:59:52;;;;;;;6.32;3.28;;;;;;;9.80;65.89;100039.63;4860685;29;20046;-91
2022/09/05 03:02:24;;;;;;;8.15;3.90;;;;;;;9.82;65.68;100030.06;4833969;29;20634;-92
2022/09/05 03:05:12;;;;;;;11.05;5.13;;;;;;;9.99;65.79;100031.50;4841004;29;20060;-92
2022/09/05 03:08:14;;;;;;;13.20;4.57;;;;;;;9.84;65.05;99988.81;4848423;29;20049;-91
2022/09/05 03:11:02;;;;;;;19.40;7.90;;;;;;;9.92;65.45;100011.94;4847630;29;20044;-91
2022/09/05 03:14:06;;;;;;;11.90;5.63;;;;;;;9.77;65.25;99972.78;4848037;29;20573;-89
2022/09/05 03:16:48;;;;;;;12.38;5.43;;;;;;;10.19;65.08;100028.53;4823736;29;20098;-90
2022/09/05 03:19:30;;;;;;;21.48;11.05;;;;;;;10.17;64.70;100027.22;4878803;29;20048;-92
2022/09/05 03:22:38;;;;;;;22.35;10.35;;;;;;;10.22;64.98;100033.41;4854606;29;20097;-92
2022/09/05 03:25:13;;;;;;;21.90;8.38;;;;;;;10.15;64.85;100032.16;4863250;29;20411;-91
2022/09/05 03:28:04;;;;;;;17.45;7.85;;;;;;;10.07;65.13;100036.34;4838759;29;20053;-89
2022/09/05 03:30:54;;;;;;;18.40;5.63;;;;;;;10.04;65.22;100034.19;4837244;29;20148;-91
2022/09/05 03:33:38;;;;;;;16.42;5.68;;;;;;;9.97;65.77;100034.56;4875970;29;20053;-91
2022/09/05 03:36:38;;;;;;;13.82;5.03;;;;;;;9.99;65.46;100037.78;4855471;29;20048;-91
2022/09/05 03:39:39;;;;;;;13.38;4.93;;;;;;;10.06;65.77;100032.78;4844384;29;20504;-90
2022/09/05 03:42:11;;;;;;;9.20;4.72;;;;;;;10.18;65.80;100026.09;4830431;29;20041;-89
2022/09/05 03:44:49;;;;;;;12.40;3.80;;;;;;;10.17;65.12;100021.75;4859593;29;20045;-91
2022/09/05 03:47:36;;;;;;;17.42;4.75;;;;;;;10.17;65.75;100036.22;4847352;29;20045;-91
2022/09/05 03:50:07;;;;;;;15.25;4.68;;;;;;;10.12;65.73;100011.69;4856047;29;20033;-92
2022/09/05 03:52:58;;;;;;;8.80;4.68;;;;;;;10.36;65.70;100028.06;4863072;29;20048;-91
2022/09/05 03:55:35;;;;;;;8.35;4.05;;;;;;;10.42;64.90;100023.34;4877948;29;20136;-92
2022/09/05 03:58:20;;;;;;;11.80;4.30;;;;;;;10.51;65.19;100029.78;4859258;29;20427;-92
2022/09/05 04:01:15;;;;;;;12.13;4.25;;;;;;;10.43;65.00;100003.94;4863698;29;20037;-89
2022/09/05 04:03:46;;;;;;;20.10;4.55;;;;;;;10.56;65.42;100025.06;4851020;29;20570;-89
2022/09/05 04:06:50;;;;;;;13.45;4.20;;;;;;;10.57;64.47;100034.06;4878654;29;20139;-91
2022/09/05 04:09:29;;;;;;;13.23;7.65;;;;;;;10.45;64.91;99995.44;4851501;29;20049;-91
2022/09/05 04:12:13;;;;;;;13.55;5.50;;;;;;;10.51;64.41;99992.31;4858908;29;20069;-92
2022/09/05 04:15:00;;;;;;;13.40;5.43;;;;;;;10.68;64.39;100001.94;4850791;29;20423;-88
2022/09/05 04:17:35;;;;;;;16.75;6.05;;;;;;;10.70;64.07;99975.09;4865381;29;20168;-87
2022/09/05 04:20:26;;;;;;;17.63;5.88;;;;;;;10.70;63.95;99967.72;4865633;29;20052;-88
2022/09/05 04:23:17;;;;;;;9.82;3.90;;;;;;;10.99;63.32;100007.72;4879395;29;20037;-89
2022/09/05 04:26:04;;;;;;;16.35;4.78;;;;;;;10.77;63.59;99968.13;4877074;29;20045;-92
2022/09/05 04:29:16;;;;;;;11.30;4.22;;;;;;;11.15;63.27;100008.28;4878373;29;20468;-88
2022/09/05 04:35:26;;;;;;;17.30;3.95;;;;;;;11.11;63.01;100024.47;4854574;29;20044;-91
2022/09/05 04:37:57;;;;;;;15.93;4.38;;;;;;;10.75;62.73;99953.13;4866319;29;20113;-86
2022/09/05 04:40:44;;;;;;;9.85;3.97;;;;;;;10.91;62.39;99981.84;4866308;29;20053;-94
2022/09/05 04:43:29;;;;;;;;;;;;;;;11.17;62.61;100023.28;4851825;29;20050;-92
2022/09/05 04:46:21;;;;;;;12.97;4.10;;;;;;;11.25;62.15;100025.34;4880864;29;20022;-89
2022/09/05 04:49:12;;;;;;;13.68;4.30;;;;;;;11.18;61.81;99988.53;4852050;29;20324;-93
2022/09/05 04:51:59;;;;;;;13.35;4.22;;;;;;;11.45;62.06;100020.63;4871174;29;20052;-86
2022/09/05 04:54:39;;;;;;;13.05;5.80;;;;;;;11.35;61.55;100007.91;4884822;29;20139;-89
2022/09/05 04:57:30;;;;;;;15.10;4.32;;;;;;;11.55;61.50;100020.44;4869302;29;20142;-94
2022/09/05 05:00:58;;;;;;;16.33;4.13;;;;;;;10.98;61.49;99932.22;4876347;29;20040;-93
2022/09/05 05:06:59;;;;;;;;;;;;;;;;;;;;;
2022/09/05 05:10:25;;;;;;;11.57;3.75;;;;;;;10.88;61.82;99941.44;4888284;29;20080;-96
2022/09/05 05:16:57;;;;;;;7.07;4.05;;;;;;;11.15;61.86;99986.38;4789151;29;20115;-93
2022/09/05 05:19:30;;;;;;;16.67;3.97;;;;;;;11.48;61.53;100007.13;4807526;29;20055;-95
2022/09/05 05:24:38;;;;;;;7.43;3.50;;;;;;;11.01;61.35;99916.03;4819492;29;20061;-93
2022/09/05 05:27:15;;;;;;;4.93;3.10;;;;;;;11.27;60.56;99951.94;4784301;29;20065;-94
2022/09/05 05:29:52;;;;;;;9.82;3.00;;;;;;;11.76;60.89;100023.63;4814341;29;20059;-94
2022/09/05 05:32:24;;;;;;;10.27;3.53;;;;;;;11.29;60.72;99955.22;4777002;29;20058;-93
2022/09/05 05:34:58;;;;;;;11.35;3.60;;;;;;;11.39;60.01;99965.16;4776619;29;20051;-95
2022/09/05 05:37:32;;;;;;;14.00;3.72;;;;;;;11.63;60.12;99995.09;4761865;29;20153;-95
2022/09/05 05:40:09;;;;;;;13.57;3.70;;;;;;;11.88;60.26;100031.34;4806673;29;20057;-94
2022/09/05 05:42:40;;;;;;;17.85;3.40;;;;;;;11.93;60.20;100037.53;4791252;29;20648;-91
2022/09/05 05:45:27;;;;;;;9.93;3.72;;;;;;;11.88;60.41;100034.09;4796652;29;20517;-88
2022/09/05 05:48:02;;;;;;;9.52;3.67;;;;;;;11.91;60.71;100008.81;4807111;29;20530;-87
2022/09/05 05:50:28;;;;;;;14.00;5.20;;;;;;;12.08;60.28;100024.66;4843929;29;20059;-86
2022/09/05 05:53:15;;;;;;;12.77;3.92;;;;;;;12.24;59.66;100031.44;4847832;29;20769;-88
2022/09/05 05:56:08;;;;;;;5.93;3.30;;;;;;;12.27;59.25;100008.88;4863007;29;20045;-86
2022/09/05 05:58:51;;;;;;;11.35;3.25;;;;;;;12.31;59.28;100011.81;4867667;29;20045;-87
2022/09/05 06:01:35;;;;;;;10.52;3.10;;;;;;;12.63;58.09;100032.78;4847690;29;20049;-87
2022/09/05 06:04:13;;;;;;;20.88;3.97;;;;;;;12.58;57.98;100031.00;4847764;29;20055;-86
2022/09/05 06:06:48;;;;;;;22.20;4.45;;;;;;;12.30;58.33;100037.63;4863649;29;20184;-85
2022/09/05 06:09:48;;;;;;;9.77;4.00;;;;;;;12.20;59.46;100025.75;4860650;29;21754;-90
2022/09/05 06:12:51;;;;;;;15.48;3.53;;;;;;;12.32;58.94;100032.66;4862996;29;20049;-89
2022/09/05 06:15:36;;;;;;;12.45;3.40;;;;;;;12.31;58.86;100031.03;4854819;29;20143;-92
2022/09/05 06:18:06;;;;;;;22.15;3.78;;;;;;;12.61;59.35;100033.09;4856974;29;20045;-89
2022/09/05 06:21:03;;;;;;;9.52;3.65;;;;;;;12.73;58.17;100035.28;4848486;29;20041;-93
2022/09/05 06:24:06;;;;;;;6.45;3.03;;;;;;;12.91;57.43;100033.50;4866247;29;20044;-89
2022/09/05 06:26:51;;;;;;;12.23;3.70;;;;;;;13.08;57.59;100030.91;4848515;29;20053;-90
2022/09/05 06:29:27;;;;;;;15.13;4.07;;;;;;;13.29;55.98;100019.44;4860981;29;20057;-91
2022/09/05 06:32:03;;;;;;;47.10;5.28;;;;;;;13.27;55.98;100018.94;4893896;29;20045;-93
2022/09/05 06:35:04;;;;;;;33.03;4.75;;;;;;;13.16;55.95;99983.47;4848487;29;20591;-89
2022/09/05 06:37:36;;;;;;;7.20;2.65;;;;;;;13.39;55.41;100017.22;4851307;29;20037;-90
2022/09/05 06:40:18;;;;;;;12.13;3.85;;;;;;;13.61;55.88;100023.81;4862793;29;20044;-90
2022/09/05 06:43:11;;;;;;;25.88;3.85;;;;;;;13.66;53.75;100022.88;4863835;29;20047;-90
2022/09/05 06:46:15;;;;;;;17.17;3.63;;;;;;;13.70;52.68;100024.66;4879103;29;20044;-90
2022/09/05 06:48:48;;;;;;;12.25;3.15;;;;;;;13.43;52.91;100008.38;4863086;29;20057;-90
2022/09/05 06:51:33;;;;;;;14.38;3.38;;;;;;;13.60;53.45;100023.00;4862100;29;20553;-90
2022/09/05 06:54:42;;;;;;;17.52;4.47;;;;;;;13.62;52.16;100008.97;4848502;29;20052;-94
2022/09/05 06:57:21;;;;;;;10.98;3.72;;;;;;;13.71;52.90;100025.47;4862621;29;20041;-90
2022/09/05 07:00:08;;;;;;;6.43;3.67;;;;;;;13.62;52.99;100031.75;4874396;29;20037;-90
2022/09/05 07:02:45;;;;;;;10.95;3.72;;;;;;;13.71;53.31;100029.03;4878910;29;20037;-87
2022/09/05 07:05:39;;;;;;;13.52;4.15;;;;;;;13.82;53.07;100016.63;4878858;29;20136;-89
2022/09/05 07:08:39;;;;;;;17.35;4.45;;;;;;;14.04;52.71;100018.50;4853417;29;20072;-89
2022/09/05 07:11:49;;;;;;;25.33;4.90;;;;;;;14.11;52.23;100026.28;4863947;29;20068;-92
2022/09/05 07:14:27;;;;;;;6.90;3.90;;;;;;;13.89;52.16;100023.63;4823806;29;20074;-91
2022/09/05 07:16:58;;;;;;;41.42;6.63;;;;;;;13.66;52.64;100014.63;4860991;29;20345;-94
2022/09/05 07:19:49;;;;;;;14.02;4.40;;;;;;;13.70;52.74;100034.84;4866632;29;20045;-89
2022/09/05 07:22:31;;;;;;;21.85;4.10;;;;;;;13.76;52.66;100030.84;4878205;29;20029;-89
2022/09/05 07:25:00;;;;;;;12.75;4.75;;;;;;;13.60;52.65;99970.00;4860321;29;20041;-90
2022/09/05 07:27:57;;;;;;;24.73;5.05;;;;;;;13.89;51.36;100009.88;4859508;29;20508;-90
2022/09/05 07:30:23;;;;;;;12.68;3.70;;;;;;;13.51;51.00;99991.09;4861248;29;20037;-92
2022/09/05 07:32:55;;;;;;;15.57;4.72;;;;;;;13.47;52.55;99999.16;4850916;29;20041;-95
2022/09/05 07:35:29;;;;;;;21.58;4.13;;;;;;;13.54;52.27;100015.19;4877928;29;20037;-90
2022/09/05 07:38:08;;;;;;;13.63;3.88;;;;;;;13.56;53.40;100002.78;4862662;29;20530;-89
2022/09/05 07:40:40;;;;;;;22.33;6.00;;;;;;;13.39;51.89;99987.03;4839675;29;20040;-90
2022/09/05 07:43:26;;;;;;;26.45;5.13;;;;;;;13.60;51.92;100017.50;4863066;29;20140;-87
2022/09/05 07:46:09;;;;;;;24.05;4.07;;;;;;;13.54;51.96;100017.94;4862372;29;20056;-89
2022/09/05 07:49:07;;;;;;;13.05;4.00;;;;;;;13.58;52.66;100003.28;4880266;29;20056;-90
2022/09/05 07:51:36;;;;;;;16.45;4.25;;;;;;;13.50;52.16;99976.56;4871240;29;20140;-90
2022/09/05 08:03:56;;;;;;;29.92;6.00;;;;;;;13.64;52.15;100012.19;4890692;29;20104;-91
2022/09/05 08:06:25;;;;;;;11.43;4.78;;;;;;;13.36;51.61;100006.88;4849117;29;20037;-91
2022/09/05 08:09:07;;;;;;;62.38;7.82;;;;;;;13.43;52.28;100022.09;4843013;29;20050;-91
2022/09/05 08:11:35;;;;;;;52.05;7.45;;;;;;;13.49;52.37;100023.59;4861860;29;20407;-93
2022/09/05 08:14:12;;;;;;;47.42;7.55;;;;;;;13.15;52.19;100003.00;4847354;29;20044;-89
2022/09/05 08:16:41;;;;;;;84.20;10.05;;;;;;;13.21;52.91;100001.75;4847382;29;20543;-89
2022/09/05 08:19:44;;;;;;;46.42;6.43;;;;;;;13.40;53.57;100018.84;4878207;29;20037;-90
2022/09/05 08:22:20;;;;;;;15.82;4.38;;;;;;;13.35;53.09;100020.94;4847890;29;20077;-91
2022/09/05 08:25:24;;;;;;;14.40;4.75;;;;;;;13.28;53.25;100015.09;4894101;29;20132;-87
2022/09/05 08:28:23;;;;;;;22.70;4.95;;;;;;;13.32;53.35;100018.81;4869883;29;20053;-94
2022/09/05 08:31:07;;;;;;;13.90;4.70;;;;;;;13.09;53.79;99983.09;4895588;29;20083;-90
2022/09/05 08:33:36;;;;;;;18.58;4.30;;;;;;;13.35;53.41;99977.00;4864815;29;20045;-90
2022/09/05 08:36:28;;;;;;;15.45;4.60;;;;;;;13.46;52.04;100008.53;4868733;29;20133;-90
2022/09/05 08:39:25;;;;;;;11.95;4.50;;;;;;;13.52;52.06;99995.50;4875130;29;20575;-91
2022/09/05 08:42:20;;;;;;;9.57;3.40;;;;;;;13.61;52.43;99988.13;4844710;29;20076;-91
2022/09/05 08:45:11;;;;;;;6.53;3.35;;;;;;;13.16;51.49;99966.19;4866467;29;20040;-94
2022/09/05 08:47:51;;;;;;;11.98;3.60;;;;;;;13.43;51.66;100002.88;4851473;29;20041;-90
2022/09/05 08:50:50;;;;;;;9.93;3.88;;;;;;;13.47;51.76;99957.97;4852888;29;20086;-91
2022/09/05 08:53:53;;;;;;;13.85;3.35;;;;;;;13.83;50.20;100015.50;4886731;29;20080;-89
2022/09/05 08:56:43;;;;;;;10.70;3.03;;;;;;;13.63;50.48;100002.31;4877862;29;20045;-89
2022/09/05 08:59:25;;;;;;;4.07;2.70;;;;;;;13.63;51.22;99999.56;4869678;29;20041;-91
2022/09/05 09:02:04;;;;;;;8.35;3.22;;;;;;;13.63;51.09;99999.56;4853180;29;20041;-90
2022/09/05 09:05:08;;;;;;;7.43;3.38;;;;;;;13.85;49.75;100009.69;4884461;29;20057;-91
2022/09/05 09:07:42;;;;;;;8.82;3.00;;;;;;;13.93;49.11;99975.13;4851393;29;20080;-93
2022/09/05 09:10:36;;;;;;;15.02;3.67;;;;;;;13.94;47.97;100001.47;4867342;29;20065;-91
2022/09/05 09:13:18;;;;;;;8.27;2.72;;;;;;;13.88;47.91;99983.53;4866813;29;20048;-90
2022/09/05 09:16:26;;;;;;;10.43;3.17;;;;;;;13.84;47.72;99964.91;4868073;29;20045;-91
2022/09/05 09:21:52;;;;;;;4.85;2.70;;;;;;;14.12;47.48;99992.16;4894081;29;20049;-90
2022/09/05 09:24:45;;;;;;;7.68;2.60;;;;;;;14.01;47.65;99994.41;4857894;29;20067;-93
2022/09/05 09:27:53;;;;;;;10.23;3.05;;;;;;;14.07;47.93;99995.03;4849838;29;20045;-93
2022/09/05 09:30:20;;;;;;;7.97;2.70;;;;;;;14.21;47.90;99978.44;4842255;29;20056;-89
2022/09/05 09:32:48;;;;;;;;;;;;;;;14.30;46.67;99993.81;4850377;29;20033;-94
2022/09/05 09:35:27;;;;;;;8.05;3.05;;;;;;;14.25;46.89;99988.47;4847090;29;19920;-92
2022/09/05 09:38:19;;;;;;;6.95;2.88;;;;;;;14.15;47.28;99971.47;4841917;29;20067;-93
2022/09/05 09:41:28;;;;;;;8.27;2.90;;;;;;;14.40;47.19;99970.66;4869194;29;20037;-94
2022/09/05 09:44:22;;;;;;;10.85;2.88;;;;;;;14.53;47.62;99988.19;4856433;29;20041;-94
2022/09/05 09:46:50;;;;;;;8.82;2.67;;;;;;;14.22;47.32;99945.09;4854456;29;20049;-96
2022/09/05 09:49:43;;;;;;;7.43;2.92;;;;;;;14.00;47.14;99948.78;4866898;29;20067;-94
2022/09/05 09:52:30;;;;;;;10.88;3.22;;;;;;;14.05;47.42;99947.81;4852714;29;20073;-94
2022/09/05 09:55:15;;;;;;;;;;;;;;;14.15;46.98;99986.00;4867969;29;20071;-93
2022/09/05 09:57:45;;;;;;;;;;;;;;;14.25;47.10;99987.66;4865695;29;19924;-92
2022/09/05 10:00:20;;;;;;;12.70;2.85;;;;;;;14.23;46.46;99973.41;4846302;29;19923;-92
2022/09/05 10:03:05;;;;;;;8.82;2.25;;;;;;;14.29;47.05;99985.88;4872121;29;20076;-93
2022/09/05 10:05:48;;;;;;;13.25;2.90;;;;;;;14.31;47.29;99984.44;4856620;29;20047;-94
2022/09/05 10:08:26;;;;;;;5.32;2.60;;;;;;;14.44;47.18;99977.16;4869200;29;20040;-93
2022/09/05 10:11:24;;;;;;;6.57;2.50;;;;;;;14.38;46.79;99974.88;4883517;29;20053;-91
2022/09/05 10:13:52;;;;;;;8.27;2.42;;;;;;;14.70;46.99;99974.44;4855145;29;20087;-93
2022/09/05 10:16:52;;;;;;;4.63;2.20;;;;;;;14.79;46.44;99971.69;4883903;29;20049;-94
2022/09/05 10:19:36;;;;;;;5.25;2.10;;;;;;;14.56;45.98;99973.78;4851599;29;20050;-93
2022/09/05 10:22:38;;;;;;;6.93;2.45;;;;;;;14.31;46.86;99951.41;4869892;29;20048;-89
2022/09/05 10:25:17;;;;;;;20.52;2.97;;;;;;;14.53;47.08;99964.22;4871227;29;20165;-93
2022/09/05 10:28:04;;;;;;;8.30;3.30;;;;;;;14.48;46.87;99956.13;4866190;29;20053;-92
2022/09/05 10:30:49;;;;;;;5.07;2.45;;;;;;;14.50;47.22;99969.53;4850127;29;20133;-95
2022/09/05 10:33:33;;;;;;;7.78;2.42;;;;;;;14.47;47.19;99965.50;4853724;29;20053;-92
2022/09/05 10:36:23;;;;;;;14.68;2.63;;;;;;;14.62;47.07;99958.72;4840606;29;20072;-93
2022/09/05 10:39:05;;;;;;;12.18;2.38;;;;;;;14.71;46.45;99962.31;4859792;29;20132;-93
2022/09/05 10:41:57;;;;;;;6.50;2.50;;;;;;;14.78;46.10;99954.34;4834100;29;20113;-91
2022/09/05 10:44:41;;;;;;;7.13;2.25;;;;;;;14.42;46.39;99945.59;4842422;29;20507;-90
2022/09/05 10:47:36;;;;;;;15.85;2.20;;;;;;;14.35;46.41;99940.59;4824645;29;20048;-92
2022/09/05 10:50:27;;;;;;;8.02;2.20;;;;;;;14.62;47.41;99950.47;4830265;29;20194;-92
2022/09/05 10:53:25;;;;;;;5.95;2.08;;;;;;;14.49;47.42;99910.16;4835054;29;20136;-92
2022/09/05 10:55:59;;;;;;;9.45;2.40;;;;;;;14.69;46.53;99956.31;4835264;29;20048;-93
2022/09/05 10:59:00;;;;;;;9.07;2.47;;;;;;;14.36;47.89;99916.63;4805212;29;20070;-93
2022/09/05 11:01:48;;;;;;;13.02;2.25;;;;;;;14.48;47.28;99903.03;4819152;29;20081;-91
2022/09/05 11:04:44;;;;;;;9.15;2.20;;;;;;;14.71;48.13;99947.75;4818620;29;20044;-91
2022/09/05 11:07:14;;;;;;;;;;;;;;;14.79;47.97;99955.16;4851971;29;20178;-91
2022/09/05 11:10:11;;;;;;;5.60;2.13;;;;;;;14.80;47.94;99948.50;4852170;29;19988;-92
2022/09/05 11:12:58;;;;;;;;;;;;;;;14.95;48.43;99948.00;4837976;29;20106;-93
2022/09/05 11:15:43;;;;;;;8.07;2.55;;;;;;;14.80;47.03;99943.84;4837008;29;19924;-91
2022/09/05 11:18:31;;;;;;;8.23;1.92;;;;;;;13.99;48.42;99852.91;4837425;29;20045;-93
2022/09/05 11:21:29;;;;;;;10.70;2.20;;;;;;;14.60;49.32;99938.97;4843325;29;20056;-92
2022/09/05 11:24:22;;;;;;;12.48;2.22;;;;;;;14.46;48.99;99943.81;4832049;29;20048;-91
2022/09/05 11:27:05;;;;;;;11.98;2.78;;;;;;;13.88;50.02;99860.66;4839688;29;20065;-93
2022/09/05 11:29:47;;;;;;;6.38;2.25;;;;;;;14.46;50.83;99938.31;4854241;29;20066;-93
2022/09/05 11:32:16;;;;;;;6.07;2.35;;;;;;;14.53;49.67;99933.16;4843889;29;20089;-92
2022/09/05 11:35:07;;;;;;;19.55;2.47;;;;;;;14.21;49.97;99891.25;4834482;29;20070;-92
2022/09/05 11:37:55;;;;;;;7.07;2.17;;;;;;;14.54;50.39;99935.59;4847454;29;20056;-92
2022/09/05 11:40:33;;;;;;;14.60;2.60;;;;;;;14.68;50.30;99932.69;4874488;29;20041;-90
2022/09/05 11:43:37;;;;;;;7.93;2.45;;;;;;;14.71;49.57;99926.53;4836084;29;20053;-91
2022/09/05 11:46:26;;;;;;;6.22;2.17;;;;;;;14.61;49.49;99923.31;4832094;29;20081;-93
2022/09/05 11:49:12;;;;;;;11.95;2.88;;;;;;;14.38;50.28;99908.88;4833208;29;20049;-91
2022/09/05 11:52:12;;;;;;;6.90;2.37;;;;;;;14.49;50.46;99910.97;4848744;29;20473;-92
2022/09/05 11:55:07;;;;;;;9.95;2.22;;;;;;;14.47;50.65;99912.41;4828773;29;20056;-92
2022/09/05 11:57:48;;;;;;;9.15;2.10;;;;;;;14.50;50.46;99915.38;4854351;29;20551;-92
2022/09/05 12:00:18;;;;;;;4.50;2.05;;;;;;;14.30;51.29;99907.72;4830610;29;20041;-91
2022/09/05 12:02:56;;;;;;;12.90;2.40;;;;;;;14.25;52.07;99919.69;4845490;29;20053;-90
2022/09/05 12:05:39;;;;;;;7.07;2.25;;;;;;;14.24;52.83;99923.59;4830461;29;20049;-93
2022/09/05 12:08:38;;;;;;;4.80;1.77;;;;;;;14.20;53.27;99884.09;4842197;29;20053;-92
2022/09/05 12:11:27;;;;;;;8.68;1.67;;;;;;;14.42;52.55;99920.84;4856003;29;20045;-90
2022/09/05 12:14:39;;;;;;;4.68;1.80;;;;;;;14.57;52.57;99906.63;4842255;29;20098;-92
2022/09/05 12:17:31;;;;;;;2.42;1.70;;;;;;;14.75;51.94;99908.22;4824901;29;20128;-90
2022/09/05 12:20:53;;;;;;;3.45;1.63;;;;;;;14.62;51.93;99870.69;4844679;29;20042;-93
2022/09/05 12:24:03;;;;;;;2.67;1.48;;;;;;;14.61;50.88;99851.75;4746536;30;20055;-92
2022/09/05 12:26:54;;;;;;;4.22;1.67;;;;;;;14.67;50.80;99853.19;4832792;29;20060;-91
2022/09/05 12:29:25;;;;;;;5.60;1.67;;;;;;;14.69;51.40;99846.22;4898043;29;20044;-92
2022/09/05 12:31:57;;;;;;;17.13;2.00;;;;;;;14.80;51.45;99861.28;4847062;29;20061;-92
2022/09/05 12:34:51;;;;;;;8.10;1.73;;;;;;;14.97;51.84;99878.88;4851877;29;20037;-92
2022/09/05 12:37:22;;;;;;;9.57;1.95;;;;;;;14.75;51.91;99888.94;4861129;29;20139;-91
2022/09/05 12:40:12;;;;;;;3.42;1.50;;;;;;;14.53;52.75;99858.88;4851576;29;20403;-92
2022/09/05 12:42:41;;;;;;;4.18;1.77;;;;;;;13.99;53.12;99795.16;4873066;29;20053;-93
2022/09/05 12:45:31;;;;;;;12.70;1.88;;;;;;;14.47;53.30;99882.16;4852286;29;20044;-94
2022/09/05 12:48:20;;;;;;;5.88;1.92;;;;;;;14.40;53.59;99879.88;4854617;29;20131;-94
2022/09/05 12:51:13;;;;;;;9.55;3.05;;;;;;;14.19;54.60;99860.50;4811354;29;20066;-94
2022/09/05 12:53:45;;;;;;;17.42;3.85;;;;;;;14.14;56.54;99863.44;4812519;29;20057;-92
2022/09/05 12:56:39;;;;;;;11.25;2.90;;;;;;;14.06;56.48;99895.25;4827859;29;20050;-91
2022/09/05 12:59:15;;;;;;;13.48;3.20;;;;;;;13.95;59.41;99876.66;4811209;29;20053;-91
2022/09/05 13:01:43;;;;;;;11.23;3.73;;;;;;;13.80;62.79;99845.75;4796546;29;20094;-91
2022/09/05 13:04:20;;;;;;;12.75;3.38;;;;;;;13.79;61.70;99830.41;4781988;29;20351;-91
2022/09/05 13:07:00;;;;;;;11.90;3.40;;;;;;;14.13;62.24;99882.97;4825543;29;20045;-91
2022/09/05 13:09:34;;;;;;;8.55;3.42;;;;;;;13.88;62.93;99835.09;4789234;29;20050;-93
2022/09/05 13:12:26;;;;;;;9.85;3.67;;;;;;;14.12;62.98;99884.13;4797039;29;20541;-90
2022/09/05 13:15:04;;;;;;;17.13;5.10;;;;;;;13.86;62.67;99882.94;4834084;29;20072;-90
2022/09/05 13:18:19;;;;;;;13.63;4.97;;;;;;;13.59;62.52;99848.31;4825346;29;20038;-91
2022/09/05 13:21:26;;;;;;;10.10;3.30;;;;;;;13.55;62.31;99830.06;4821432;29;20133;-90
2022/09/05 13:24:06;;;;;;;7.72;3.50;;;;;;;13.77;62.89;99860.13;4811248;29;20038;-90
2022/09/05 13:26:35;;;;;;;9.45;3.78;;;;;;;13.85;62.90;99875.84;4810162;29;20117;-90